Seleccione un Aeropuerto
Regional La Paz
EstacinAerodromoSit. GeograficaDescripcin
SLLPInternaciónal El Alto16-08S-68-10W SLLP 250600Z VRB02KT 9999 SCT070 03/M04 Q1040 A3071 629.3 HR58 NOSIG=
SLRYReyes14-18S-67-21W SLRY 242200Z 36004KT 9999 NSC 29/21 Q1012 A2989 990.5 HR61 RWY NML=
SLRQRurrenabaque14-25S-67-29W SLRQ 242300Z 00000KT 9999 NSC 28/22 Q1010 A2985 986.8 HR70=
SLAPApolo14-44S-68-24W SLAP 221200Z NIL=
SLSBSan Borja14-51S-66-44W SLSB 242300Z 00000KT 9999 NSC 25/22 Q1010 A2985 HR81 RWY NML=
SLCNCharaña17-35S-69-25W
SLOROruro17-57S-67-04W SLOR 241700Z 07004KT 9999 FEW020 16/01 Q1038 A3065 658.0 HR37=
SLUYUyuni20-27S-62-52W SLUY 231700Z 31011KT 9999 FEW033 11/M10 Q1037 A3063 660.5 HR22 AC/CI=
SLCCCopacabana - Tito Yupanqui16-11S-69-05W
Regional Cochabamba
EstacinAerodromoSit. GeograficaDescripcin
SLVMVillamontes21-15S-63-24W SLVM 241600Z NIL=
SLHIChimore16-58S-65-09W SLHI 241600Z NIL=
SLCBCochabamba17-25S-66-10W SLCB 250600Z 10003KT 9999 FEW070 SCT200 13/M02 Q1025 A3029 751.9 HR35 FU NOSIG=
SLALAlcantari19-14S-65-09W SLAL 241600Z 06004KT 9999 FEW020 20/M03 Q1031 A3044 704.9 HR21=
SLPOPotosí19-32S-65-43W SLPO 241600Z NIL=
SLAGMonteagudo19-49S-63-58W SLAG 241600Z NIL=
SLTJTarija21-33S-64-42W SLTJ 241600Z 11004KT 9999 NSC 26/06 Q1017 A3006 813.2 HR29 FU AC=
SLYAYacuiba21-57S-63-39W SLYA 241600Z NIL=
SLBJBermejo22-46S-64-18W SLBJ 241600Z NIL=
Regional Santa Cruz
EstacinAerodromoSit. GeograficaDescripcin
SLVGValle Grande18-28S-64-05W SLVG 242100Z 36005KT 9999 NSC 21/10 Q1021 A3015 HR42 RWY NML=
SLASAscención de Guarayos15-55S-63-09W SLAS 242200Z 36004KT 9999 NSC 29/19 Q1013 A2992 HR58 RWY NML=
SLCPConcepción16-08S-62-01W SLCP 242200Z 00000KT 9999 NSC 29/18 Q1014 A2994 HR52 RWY NML=
SLJVSan Javier16-16S-62-28W SLJV 242200Z 36005KT 9999 NSC 27/17 Q1011 A2985 HR55 RWY NML=
SLTISan Matías16-20S-58-24W SLTI 242200Z 00000KT 9999 NSC 31/17 Q1016 A3000 HR35 RWY NML=
SLSISan Ignacio de Velasco16-23S-60-57W
SLVRInternaciónal Viru Viru17-38S-63-08W SLVR 250600Z 36007KT 9999 NSC 20/17 Q1011 A2988 HR84 NOSIG=
SLETEl Trompillo17-48S-63-10W SLET 242300Z 33014G26KT 9999 NSC 27/16 Q1010 A2984 HR51 NOSIG=
SLJESan José de Chiquitos17-49S-60-44W SLJE 242100Z WO ATTN=
SLRBRoboré18-19S-59-45W SLRB 242300Z 00000KT 9999 NSC 28/21 Q1013 A2991 HR65 RWY NML=
SLPSPuerto Suárez18-58S-57-49W SLPS 232200Z 00000KT 9999 NSC 30/21 Q1012 A2989 HR65=
SLCACamiri20-00S-63-31W SLCA 242300Z 00000KT 9999 NSC 25/13 Q1011 A2985 HR49 RWY NML=
Regional Beni
EstacinAerodromoSit. GeograficaDescripcin
SLTRTrinidad14-49S-64-54W SLTR 242300Z 00000KT 8000 NSC 28/22 Q1011 A2986 992.7 HR68 FU NOSIG=
SLCOCobija11-02S-68-47W SLCO 241900Z 31004KT 9999 FEW035 33/21 Q1012 A2989 984.9 HR47 FU=
SLGMGuayaramerín10-53S-65-23W SLGM 242300Z 00000KT 9999 FEW020 31/20 Q1011 A2986 HR51=
SLRIRiberalta11-00S-66-04W SLRI 242300Z 00000KT 9999 NSC 29/22 Q1012 A2989 HR66 CI=
SLJOSan Joaquin13-03S-64-39W SLJO 242200Z 00000KT 9999 NSC 32/21 Q1008 A2979 HR52 RWY NML=
SLRASan Ramón13-15S-64-36W SLRA 242200Z NIL=
SLMGSan Magdalena13-15S-64-36W SLMG 242200Z 00000KT 9999 NSC 33/20 Q1010 A2983 HR46 RWY NML=
SLBUBaures13-39S-63-42W SLBU 242200Z NIL=
SLSASanta Ana de Yacuma13-45S-65-26W SLSA 242300Z 00000KT 9999 NSC 28/18 Q1011 A2986 HR55 FU=
SLSRSanta Rosa14-04S-66-47W SLSR 242200Z 32008KT 9999 NSC 32/21 Q1015 A2998 HR51 RWY NML=
SLSMSan Ignacio de Moxos14-57S-65-38W SLSM 242200Z 00000KT 9999 NSC 30/21 Q1010 A2983 HR58 RWY NML=